createdAt,value
2022-10-12T00:01:12.791Z,72.82
2022-10-12T00:03:39.980Z,73.44
2022-10-12T00:06:08.951Z,73.88
2022-10-12T00:08:37.330Z,74.05
2022-10-12T00:11:05.646Z,73.37
2022-10-12T00:13:32.585Z,73.26
2022-10-12T00:16:04.552Z,73.34
2022-10-12T00:18:32.202Z,73.91
2022-10-12T00:21:08.497Z,74.11
2022-10-12T00:23:36.960Z,74.16
2022-10-12T00:26:16.594Z,73.88
2022-10-12T00:28:43.607Z,73.76
2022-10-12T00:31:14.348Z,73.59
2022-10-12T00:33:41.372Z,73.48
2022-10-12T00:36:19.773Z,73.75
2022-10-12T00:38:48.801Z,74.02
2022-10-12T00:41:18.007Z,74.12
2022-10-12T00:43:46.381Z,74.39
2022-10-12T00:46:15.950Z,74.67
2022-10-12T00:48:44.818Z,74.42
2022-10-12T00:51:12.155Z,74.26
2022-10-12T00:53:45.152Z,74.26
2022-10-12T00:56:14.168Z,74.19
2022-10-12T00:58:41.323Z,74.11
2022-10-12T01:01:08.233Z,74.25
2022-10-12T01:03:36.518Z,74.53
2022-10-12T01:06:04.081Z,74.18
2022-10-12T01:08:30.859Z,74.55
2022-10-12T01:10:57.796Z,74.46
2022-10-12T01:13:24.886Z,74.78
2022-10-12T01:16:03.513Z,74.78
2022-10-12T01:19:01.270Z,75.25
2022-10-12T01:21:28.465Z,75.31
2022-10-12T01:24:31.333Z,75.49
2022-10-12T01:27:24.458Z,75.72
2022-10-12T01:29:51.169Z,75.61
2022-10-12T01:32:39.078Z,75.74
2022-10-12T01:35:14.408Z,76.10
2022-10-12T01:38:19.270Z,76.21
2022-10-12T01:41:16.647Z,75.98
2022-10-12T01:43:44.970Z,76.65
2022-10-12T01:46:21.297Z,77.06
2022-10-12T01:48:51.956Z,76.93
2022-10-12T01:51:35.087Z,77.06
2022-10-12T01:54:17.530Z,76.62
2022-10-12T01:56:58.809Z,76.89
2022-10-12T02:00:00.144Z,77.24
2022-10-12T02:03:05.000Z,77.38
2022-10-12T02:05:44.773Z,77.61
2022-10-12T02:08:46.978Z,77.64
2022-10-12T02:11:17.046Z,77.60
2022-10-12T02:14:16.203Z,78.00
2022-10-12T02:16:54.240Z,78.00
2022-10-12T02:19:41.185Z,78.03
2022-10-12T02:22:13.329Z,78.17
2022-10-12T02:24:43.394Z,78.49
2022-10-12T02:27:16.319Z,78.58
2022-10-12T02:29:46.263Z,79.15
2022-10-12T02:32:51.249Z,79.11
2022-10-12T02:35:28.525Z,79.21
2022-10-12T02:38:19.230Z,78.80
2022-10-12T02:40:58.972Z,79.07
2022-10-12T02:43:43.057Z,79.12
2022-10-12T02:46:12.073Z,78.93
2022-10-12T02:48:42.196Z,78.84
2022-10-12T02:51:15.618Z,79.12
2022-10-12T02:53:45.559Z,78.66
2022-10-12T02:56:18.493Z,78.57
2022-10-12T02:58:49.788Z,78.64
2022-10-12T03:01:19.918Z,79.20
2022-10-12T03:03:47.307Z,79.32
2022-10-12T03:06:14.602Z,78.86
2022-10-12T03:08:42.984Z,79.13
2022-10-12T03:11:14.883Z,79.12
2022-10-12T03:13:45.836Z,79.12
2022-10-12T03:16:15.069Z,79.28
2022-10-12T03:18:43.424Z,79.46
2022-10-12T03:21:11.743Z,79.53
2022-10-12T03:23:40.154Z,79.93
2022-10-12T03:26:08.344Z,79.31
2022-10-12T03:28:37.278Z,79.29
2022-10-12T03:31:04.974Z,78.97
2022-10-12T03:33:36.240Z,78.75
2022-10-12T03:36:04.248Z,79.23
2022-10-12T03:38:31.768Z,79.56
2022-10-12T03:41:02.870Z,79.44
2022-10-12T03:43:34.703Z,79.41
2022-10-12T03:46:04.550Z,79.25
2022-10-12T03:48:32.779Z,78.74
2022-10-12T03:50:59.767Z,78.76
2022-10-12T03:53:27.192Z,79.03
2022-10-12T03:55:54.084Z,79.08
2022-10-12T03:58:21.027Z,78.95
2022-10-12T04:00:52.564Z,78.91
2022-10-12T04:03:19.491Z,78.68
2022-10-12T04:05:55.394Z,78.74
2022-10-12T04:08:23.362Z,78.91
2022-10-12T04:10:52.855Z,78.51
2022-10-12T04:13:20.329Z,77.98
2022-10-12T04:15:47.158Z,78.21
2022-10-12T04:18:13.903Z,78.24
2022-10-12T04:20:40.614Z,77.63
2022-10-12T04:23:07.468Z,77.70
2022-10-12T04:25:34.187Z,77.80
2022-10-12T04:28:00.898Z,77.58
2022-10-12T04:30:27.778Z,78.09
2022-10-12T04:32:54.485Z,77.99
2022-10-12T04:35:21.232Z,77.59
2022-10-12T04:37:48.093Z,77.68
2022-10-12T04:40:14.963Z,77.86
2022-10-12T04:42:43.677Z,77.54
2022-10-12T04:45:10.615Z,77.29
2022-10-12T04:47:37.660Z,77.41
2022-10-12T04:50:05.696Z,76.98
2022-10-12T04:52:32.491Z,76.71
2022-10-12T04:54:59.426Z,76.57
2022-10-12T04:57:26.130Z,76.46
2022-10-12T04:59:52.816Z,76.65
2022-10-12T05:02:19.620Z,76.68
2022-10-12T05:04:46.349Z,76.54
2022-10-12T05:07:13.099Z,76.88
2022-10-12T05:09:39.848Z,77.04
2022-10-12T05:12:06.699Z,77.56
2022-10-12T05:14:35.986Z,78.13
2022-10-12T05:17:03.340Z,78.08
2022-10-12T05:19:30.106Z,78.41
2022-10-12T05:21:56.904Z,78.13
2022-10-12T05:24:23.632Z,78.33
2022-10-12T05:26:50.344Z,78.49
2022-10-12T05:29:17.037Z,78.18
2022-10-12T05:31:43.738Z,78.23
2022-10-12T05:34:10.594Z,78.21
2022-10-12T05:36:37.472Z,78.58
2022-10-12T05:39:11.794Z,78.35
2022-10-12T05:41:38.913Z,78.62
2022-10-12T05:44:06.062Z,78.68
2022-10-12T05:46:32.867Z,78.45
2022-10-12T05:48:59.798Z,78.58
2022-10-12T05:51:28.944Z,78.73
2022-10-12T05:53:56.006Z,78.42
2022-10-12T05:56:22.861Z,78.47
2022-10-12T05:58:49.537Z,78.42
2022-10-12T06:01:16.700Z,78.51
2022-10-12T06:03:43.446Z,78.11
2022-10-12T06:06:10.282Z,78.43
2022-10-12T06:08:37.100Z,78.33
2022-10-12T06:11:04.043Z,78.10
2022-10-12T06:13:31.217Z,78.30
2022-10-12T06:15:58.287Z,78.36
2022-10-12T06:18:25.086Z,78.20
2022-10-12T06:21:21.103Z,78.07
2022-10-12T06:23:41.197Z,78.18
2022-10-12T06:26:08.012Z,78.35
2022-10-12T06:28:34.849Z,78.32
2022-10-12T06:31:01.902Z,78.38
2022-10-12T06:33:29.182Z,78.30
2022-10-12T06:35:56.462Z,78.64
2022-10-12T06:38:24.060Z,78.52
2022-10-12T06:40:51.113Z,78.49
2022-10-12T06:43:17.859Z,78.38
2022-10-12T06:45:44.552Z,78.62
2022-10-12T06:48:16.187Z,79.03
2022-10-12T06:50:46.436Z,78.78
2022-10-12T06:53:13.179Z,78.77
2022-10-12T06:55:40.711Z,78.81
2022-10-12T06:58:07.635Z,78.91
2022-10-12T07:00:34.672Z,79.13
2022-10-12T07:03:01.465Z,79.31
2022-10-12T07:05:28.495Z,79.13
2022-10-12T07:07:55.464Z,79.31
2022-10-12T07:10:23.482Z,79.26
2022-10-12T07:12:50.344Z,78.95
2022-10-12T07:15:17.279Z,79.02
2022-10-12T07:17:43.973Z,78.96
2022-10-12T07:20:10.770Z,79.05
2022-10-12T07:22:37.646Z,79.37
2022-10-12T07:25:04.766Z,79.24
2022-10-12T07:27:31.637Z,79.07
2022-10-12T07:29:58.435Z,79.38
2022-10-12T07:32:25.277Z,79.39
2022-10-12T07:34:52.015Z,79.43
2022-10-12T07:37:18.799Z,79.22
2022-10-12T07:39:45.884Z,79.36
2022-10-12T07:42:18.203Z,79.22
2022-10-12T07:44:46.190Z,78.92
2022-10-12T07:47:12.893Z,78.95
2022-10-12T07:49:39.649Z,78.83
2022-10-12T07:52:06.416Z,78.63
2022-10-12T07:54:33.291Z,78.57
2022-10-12T07:57:00.017Z,77.88
2022-10-12T07:59:26.964Z,77.86
2022-10-12T08:01:53.764Z,78.10
2022-10-12T08:04:20.582Z,78.17
2022-10-12T08:06:47.460Z,78.52
2022-10-12T08:09:14.348Z,78.92
2022-10-12T08:11:42.092Z,79.16
2022-10-12T08:14:16.644Z,79.21
2022-10-12T08:16:44.622Z,79.38
2022-10-12T08:19:12.588Z,78.82
2022-10-12T08:21:41.311Z,78.54
2022-10-12T08:24:08.733Z,78.00
2022-10-12T08:26:36.091Z,77.69
2022-10-12T08:29:13.558Z,77.37
2022-10-12T08:31:40.738Z,76.93
2022-10-12T08:34:07.529Z,76.50
2022-10-12T08:36:34.477Z,75.65
2022-10-12T08:39:13.265Z,75.75
2022-10-12T08:41:57.035Z,75.01
2022-10-12T08:45:06.843Z,75.26
2022-10-12T08:47:41.194Z,75.17
2022-10-12T08:50:17.113Z,74.30
2022-10-12T08:53:20.843Z,73.94
2022-10-12T08:55:47.653Z,73.87
2022-10-12T08:58:14.663Z,73.98
2022-10-12T09:00:42.854Z,73.90
2022-10-12T09:03:24.207Z,73.53
2022-10-12T09:06:04.608Z,73.30
2022-10-12T09:08:52.519Z,72.96
2022-10-12T09:11:46.845Z,72.88
2022-10-12T09:14:21.279Z,72.46
2022-10-12T09:16:50.375Z,71.80
2022-10-12T09:19:25.387Z,71.41
2022-10-12T09:21:52.182Z,70.69
2022-10-12T09:24:22.580Z,70.36
2022-10-12T09:26:52.791Z,70.33
2022-10-12T09:29:24.510Z,69.99
2022-10-12T09:32:15.627Z,70.26
2022-10-12T09:34:43.647Z,70.06
2022-10-12T09:37:21.044Z,69.87
2022-10-12T09:39:48.485Z,70.24
2022-10-12T09:42:15.741Z,70.54
2022-10-12T09:44:50.604Z,70.64
2022-10-12T09:47:33.484Z,70.86
2022-10-12T09:50:08.429Z,71.00
2022-10-12T09:52:45.031Z,71.09
2022-10-12T09:55:11.950Z,71.13
2022-10-12T09:57:45.715Z,71.33
2022-10-12T10:00:44.491Z,71.31
2022-10-12T10:03:27.873Z,71.28
2022-10-12T10:06:05.315Z,70.79
2022-10-12T10:08:41.373Z,70.78
2022-10-12T10:11:20.662Z,70.68
2022-10-12T10:13:53.488Z,70.81
2022-10-12T10:16:22.054Z,70.96
2022-10-12T10:18:54.550Z,70.79
2022-10-12T10:21:36.375Z,70.38
2022-10-12T10:24:05.371Z,70.28
2022-10-12T10:26:54.148Z,70.43
2022-10-12T10:29:33.191Z,70.16
2022-10-12T10:32:24.250Z,69.94
2022-10-12T10:35:22.006Z,69.85
2022-10-12T10:38:17.905Z,69.89
2022-10-12T10:40:52.139Z,70.28
2022-10-12T10:43:30.693Z,70.51
2022-10-12T10:46:03.589Z,70.19
2022-10-12T10:48:40.885Z,70.39
2022-10-12T10:51:07.921Z,70.66
2022-10-12T10:53:47.857Z,70.72
2022-10-12T10:56:22.049Z,70.36
2022-10-12T10:59:00.323Z,70.60
2022-10-12T11:01:34.223Z,70.60
2022-10-12T11:04:07.550Z,70.55
2022-10-12T11:06:43.004Z,70.80
2022-10-12T11:09:20.237Z,70.62
2022-10-12T11:11:56.323Z,70.80
2022-10-12T11:14:31.243Z,70.47
2022-10-12T11:17:05.957Z,70.32
2022-10-12T11:19:43.764Z,70.31
2022-10-12T11:22:30.468Z,69.90
2022-10-12T11:25:07.176Z,69.59
2022-10-12T11:27:37.978Z,69.39
2022-10-12T11:30:13.800Z,69.37
2022-10-12T11:32:48.418Z,69.28
2022-10-12T11:35:19.202Z,69.28
2022-10-12T11:37:55.564Z,69.43
2022-10-12T11:41:00.329Z,69.93
2022-10-12T11:43:40.726Z,70.11
2022-10-12T11:46:13.388Z,69.32
2022-10-12T11:48:48.098Z,68.81
2022-10-12T11:51:14.910Z,68.87
2022-10-12T11:54:29.248Z,68.43
2022-10-12T11:57:02.060Z,68.75
2022-10-12T11:59:40.612Z,67.92
2022-10-12T12:02:29.747Z,68.25
2022-10-12T12:04:57.127Z,68.19
2022-10-12T12:07:54.299Z,68.04
2022-10-12T12:10:27.909Z,67.88
2022-10-12T12:13:18.112Z,68.03
2022-10-12T12:15:47.878Z,68.02
2022-10-12T12:18:26.503Z,68.35
2022-10-12T12:21:07.633Z,68.31
2022-10-12T12:23:42.036Z,68.39
2022-10-12T12:26:18.161Z,68.82
2022-10-12T12:29:10.390Z,68.81
2022-10-12T12:31:37.830Z,68.86
2022-10-12T12:34:06.879Z,69.38
2022-10-12T12:36:39.380Z,69.11
2022-10-12T12:39:33.139Z,69.39
2022-10-12T12:42:02.526Z,69.64
2022-10-12T12:44:40.644Z,70.05
2022-10-12T12:47:32.662Z,69.80
2022-10-12T12:50:33.557Z,69.71
2022-10-12T12:53:36.785Z,69.27
2022-10-12T12:56:17.158Z,69.10
2022-10-12T12:59:13.313Z,69.33
2022-10-12T13:02:15.582Z,69.78
2022-10-12T13:04:53.499Z,69.25
2022-10-12T13:08:04.226Z,69.32
2022-10-12T13:10:40.896Z,68.93
2022-10-12T13:13:19.799Z,68.87
2022-10-12T13:16:57.219Z,68.41
2022-10-12T13:19:22.461Z,67.93
2022-10-12T13:21:52.683Z,66.67
2022-10-12T13:24:44.529Z,66.31
2022-10-12T13:27:27.697Z,66.30
2022-10-12T13:29:59.795Z,66.52
2022-10-12T13:32:42.619Z,66.64
2022-10-12T13:35:35.841Z,66.86
2022-10-12T13:38:05.506Z,67.07
2022-10-12T13:40:41.114Z,67.25
2022-10-12T13:43:29.145Z,67.68
2022-10-12T13:45:56.449Z,67.49
2022-10-12T13:48:40.240Z,67.26
2022-10-12T13:51:24.086Z,67.83
2022-10-12T13:53:51.085Z,67.82
2022-10-12T13:56:21.394Z,67.29
2022-10-12T13:58:48.458Z,67.24
2022-10-12T14:01:15.244Z,67.66
2022-10-12T14:03:44.156Z,68.05
2022-10-12T14:06:34.536Z,67.81
2022-10-12T14:09:27.338Z,67.88
2022-10-12T14:11:56.504Z,67.67
2022-10-12T14:14:35.351Z,67.88
2022-10-12T14:17:02.616Z,67.20
2022-10-12T14:19:42.981Z,66.43
2022-10-12T14:22:10.112Z,66.79
2022-10-12T14:24:37.399Z,67.24
2022-10-12T14:27:06.985Z,66.73
2022-10-12T14:29:36.027Z,66.39
2022-10-12T14:32:23.385Z,66.45
2022-10-12T14:35:04.130Z,66.89
2022-10-12T14:37:31.404Z,66.53
2022-10-12T14:40:02.609Z,66.86
2022-10-12T14:42:34.781Z,66.99
2022-10-12T14:45:04.125Z,66.91
2022-10-12T14:47:38.750Z,67.00
2022-10-12T14:50:09.001Z,67.83
2022-10-12T14:52:49.574Z,68.60
2022-10-12T14:55:19.212Z,69.16
2022-10-12T14:57:47.460Z,69.44
2022-10-12T15:00:23.947Z,70.17
2022-10-12T15:02:51.198Z,70.97
2022-10-12T15:05:21.594Z,70.93
2022-10-12T15:07:49.410Z,71.32
2022-10-12T15:10:18.803Z,71.80
2022-10-12T15:12:46.217Z,71.63
2022-10-12T15:15:38.514Z,71.93
2022-10-12T15:18:05.685Z,72.77
2022-10-12T15:20:33.086Z,72.42
2022-10-12T15:23:03.031Z,72.82
2022-10-12T15:25:35.840Z,72.57
2022-10-12T15:28:03.250Z,72.42
2022-10-12T15:30:33.505Z,71.89
2022-10-12T15:33:00.359Z,72.39
2022-10-12T15:35:29.443Z,72.31
2022-10-12T15:37:59.157Z,72.59
2022-10-12T15:40:29.241Z,72.81
2022-10-12T15:42:56.054Z,72.79
2022-10-12T15:45:37.105Z,73.04
2022-10-12T15:48:06.173Z,72.95
2022-10-12T15:50:47.716Z,73.19
2022-10-12T15:53:26.461Z,73.72
2022-10-12T15:55:54.909Z,73.90
2022-10-12T15:58:22.295Z,74.10
2022-10-12T16:00:49.368Z,74.54
2022-10-12T16:03:25.735Z,74.77
2022-10-12T16:05:54.003Z,75.08
2022-10-12T16:08:20.978Z,75.30
2022-10-12T16:10:48.808Z,75.78
2022-10-12T16:13:16.388Z,75.83
2022-10-12T16:15:43.840Z,75.90
2022-10-12T16:18:11.474Z,76.18
2022-10-12T16:20:41.315Z,76.68
2022-10-12T16:23:22.057Z,76.90
2022-10-12T16:25:48.802Z,77.49
2022-10-12T16:28:15.705Z,77.96
2022-10-12T16:30:42.582Z,78.55
2022-10-12T16:33:09.452Z,79.24
2022-10-12T16:35:38.696Z,79.78
2022-10-12T16:38:05.537Z,80.47
2022-10-12T16:40:32.619Z,81.12
2022-10-12T16:42:59.336Z,81.03
2022-10-12T16:45:26.225Z,81.60
2022-10-12T16:47:54.225Z,81.97
2022-10-12T16:50:22.668Z,82.17
2022-10-12T16:52:49.566Z,81.99
2022-10-12T16:55:17.318Z,81.94
2022-10-12T16:57:46.523Z,81.85
2022-10-12T17:00:16.916Z,81.68
2022-10-12T17:02:43.778Z,81.62
2022-10-12T17:05:10.645Z,81.12
2022-10-12T17:07:37.390Z,80.99
2022-10-12T17:10:04.961Z,80.62
2022-10-12T17:12:31.736Z,80.18
2022-10-12T17:14:58.533Z,78.83
2022-10-12T17:17:25.441Z,78.50
2022-10-12T17:19:52.211Z,77.93
2022-10-12T17:22:19.203Z,77.22
2022-10-12T17:24:46.157Z,76.68
2022-10-12T17:27:14.722Z,76.06
2022-10-12T17:29:42.813Z,75.73
2022-10-12T17:32:11.015Z,75.44
2022-10-12T17:34:43.548Z,75.41
2022-10-12T17:37:13.699Z,75.41
2022-10-12T17:39:44.098Z,75.28
2022-10-12T17:42:11.316Z,75.28
2022-10-12T17:44:38.359Z,75.31
2022-10-12T17:47:05.284Z,75.48
2022-10-12T17:49:32.271Z,75.42
2022-10-12T17:51:59.128Z,75.55
2022-10-12T17:54:26.884Z,75.59
2022-10-12T17:56:57.314Z,76.00
2022-10-12T17:59:24.552Z,76.43
2022-10-12T18:01:52.531Z,76.43
2022-10-12T18:04:19.917Z,76.89
2022-10-12T18:06:46.695Z,77.07
2022-10-12T18:09:14.910Z,77.22
2022-10-12T18:11:42.031Z,77.48
2022-10-12T18:14:10.138Z,77.43
2022-10-12T18:16:37.494Z,77.50
2022-10-12T18:19:11.507Z,77.55
2022-10-12T18:21:39.020Z,77.88
2022-10-12T18:24:16.083Z,77.71
2022-10-12T18:26:46.201Z,77.63
2022-10-12T18:29:16.424Z,77.59
2022-10-12T18:31:43.228Z,77.75
2022-10-12T18:34:10.062Z,78.09
2022-10-12T18:36:36.977Z,78.29
2022-10-12T18:39:14.802Z,78.25
2022-10-12T18:41:41.737Z,78.60
2022-10-12T18:44:10.958Z,78.60
2022-10-12T18:46:39.169Z,79.02
2022-10-12T18:49:16.736Z,79.43
2022-10-12T18:51:51.394Z,79.25
2022-10-12T18:54:18.241Z,79.63
2022-10-12T18:56:45.468Z,79.62
2022-10-12T18:59:18.653Z,79.71
2022-10-12T19:01:45.697Z,79.80
2022-10-12T19:04:15.647Z,80.09
2022-10-12T19:06:42.930Z,80.39
2022-10-12T19:09:14.232Z,80.24
2022-10-12T19:11:41.295Z,80.29
2022-10-12T19:14:13.842Z,80.46
2022-10-12T19:16:41.057Z,80.46
2022-10-12T19:19:21.181Z,80.26
2022-10-12T19:21:50.266Z,80.71
2022-10-12T19:24:17.928Z,80.65
2022-10-12T19:26:45.391Z,80.65
2022-10-12T19:29:14.643Z,80.35
2022-10-12T19:31:44.957Z,80.40
2022-10-12T19:34:14.045Z,80.47
2022-10-12T19:36:42.507Z,80.19
2022-10-12T19:39:15.757Z,80.09
2022-10-12T19:41:42.715Z,80.29
2022-10-12T19:44:11.687Z,80.46
2022-10-12T19:46:40.002Z,80.36
2022-10-12T19:49:14.780Z,79.98
2022-10-12T19:51:41.992Z,79.89
2022-10-12T19:54:12.025Z,80.00
2022-10-12T19:56:39.234Z,80.22
2022-10-12T19:59:11.008Z,80.45
2022-10-12T20:01:39.691Z,80.85
2022-10-12T20:04:09.889Z,80.88
2022-10-12T20:06:37.624Z,81.27
2022-10-12T20:09:16.191Z,81.18
2022-10-12T20:11:42.956Z,81.37
2022-10-12T20:14:10.604Z,81.30
2022-10-12T20:16:37.842Z,81.40
2022-10-12T20:19:09.936Z,81.58
2022-10-12T20:21:36.850Z,81.37
2022-10-12T20:24:04.080Z,81.41
2022-10-12T20:26:30.980Z,81.70
2022-10-12T20:29:04.789Z,81.59
2022-10-12T20:31:31.572Z,81.64
2022-10-12T20:33:58.490Z,81.89
2022-10-12T20:36:30.778Z,82.05
2022-10-12T20:38:59.308Z,82.43
2022-10-12T20:41:27.819Z,82.89
2022-10-12T20:43:58.876Z,83.54
2022-10-12T20:46:26.894Z,83.99
2022-10-12T20:49:08.486Z,84.19
2022-10-12T20:51:36.574Z,84.69
2022-10-12T20:54:05.860Z,85.10
2022-10-12T20:56:35.477Z,85.62
2022-10-12T20:59:14.906Z,86.12
2022-10-12T21:01:42.232Z,86.69
2022-10-12T21:04:10.392Z,86.92
2022-10-12T21:06:38.462Z,87.18
2022-10-12T21:09:07.381Z,87.42
2022-10-12T21:11:34.671Z,87.77
2022-10-12T21:14:01.614Z,87.91
2022-10-12T21:16:28.697Z,88.12
2022-10-12T21:18:56.161Z,88.11
2022-10-12T21:21:23.013Z,88.01
2022-10-12T21:24:00.557Z,87.96
2022-10-12T21:26:29.633Z,88.01
2022-10-12T21:28:56.523Z,88.18
2022-10-12T21:31:26.029Z,87.83
2022-10-12T21:33:55.043Z,88.13
2022-10-12T21:36:29.170Z,88.01
2022-10-12T21:38:56.188Z,87.87
2022-10-12T21:41:25.709Z,87.84
2022-10-12T21:43:53.174Z,88.37
2022-10-12T21:46:26.261Z,88.23
2022-10-12T21:48:55.759Z,88.32
2022-10-12T21:51:25.062Z,88.14
2022-10-12T21:53:52.292Z,88.18
2022-10-12T21:56:27.780Z,88.11
2022-10-12T21:59:07.312Z,88.30
2022-10-12T22:01:40.897Z,88.28
2022-10-12T22:04:13.144Z,87.91
2022-10-12T22:06:42.501Z,88.01
2022-10-12T22:09:15.463Z,88.15
2022-10-12T22:11:43.346Z,88.20
2022-10-12T22:14:14.867Z,88.42
2022-10-12T22:16:43.530Z,88.42
2022-10-12T22:19:19.296Z,88.35
2022-10-12T22:21:48.904Z,88.55
2022-10-12T22:24:16.128Z,88.65
2022-10-12T22:26:44.039Z,88.56
2022-10-12T22:29:11.976Z,88.64
2022-10-12T22:31:40.969Z,88.78
2022-10-12T22:34:08.439Z,88.83
2022-10-12T22:36:35.165Z,89.21
2022-10-12T22:39:10.678Z,89.11
2022-10-12T22:41:37.488Z,89.43
2022-10-12T22:44:04.406Z,89.47
2022-10-12T22:46:31.554Z,89.49
2022-10-12T22:48:58.395Z,89.83
2022-10-12T22:51:31.615Z,89.94
2022-10-12T22:53:59.205Z,90.17
2022-10-12T22:56:26.343Z,90.21
2022-10-12T22:59:07.432Z,90.80
2022-10-12T23:01:35.253Z,90.77
2022-10-12T23:04:01.999Z,91.24
2022-10-12T23:06:28.857Z,91.41
2022-10-12T23:08:55.747Z,91.66
2022-10-12T23:11:25.158Z,91.78
2022-10-12T23:13:53.149Z,91.90
2022-10-12T23:16:23.197Z,92.15
2022-10-12T23:18:59.515Z,92.70
2022-10-12T23:21:27.963Z,92.87
2022-10-12T23:23:54.844Z,93.38
2022-10-12T23:26:24.305Z,93.43
2022-10-12T23:28:51.956Z,93.85
2022-10-12T23:31:21.998Z,94.09
2022-10-12T23:33:49.346Z,94.53
2022-10-12T23:36:17.517Z,94.72
2022-10-12T23:38:45.551Z,94.91
2022-10-12T23:41:13.115Z,95.63
2022-10-12T23:43:40.622Z,95.78
2022-10-12T23:46:08.462Z,96.01
2022-10-12T23:48:35.672Z,96.12
2022-10-12T23:51:02.903Z,96.62
2022-10-12T23:53:29.689Z,97.05
2022-10-12T23:55:56.810Z,97.27
2022-10-12T23:58:23.741Z,97.45
